Time;durP1;ratioP1;P1;durP2;ratioP2;P2;SDS_P1;SDS_P2;PMS_P1;PMS_P2;Temp;Humidity;BMP_temperature;BMP_pressure;BME280_temperature;BME280_humidity;BME280_pressure;Samples;Min_cycle;Max_cycle;Signal;HPM_P1;HPM_P2
2022/03/16 00:00:51;;;;;;;58.50;42.08;;;4.40;99.90;;;;;;5038902;28;20698;-58
2022/03/16 00:03:17;;;;;;;58.00;40.30;;;4.40;99.90;;;;;;5053756;28;20132;-59
2022/03/16 00:05:44;;;;;;;59.75;41.13;;;4.40;99.90;;;;;;5018514;28;20049;-59
2022/03/16 00:08:11;;;;;;;58.20;40.70;;;4.30;99.90;;;;;;5040457;28;20643;-58
2022/03/16 00:10:37;;;;;;;48.83;36.95;;;4.30;99.90;;;;;;5046101;28;20120;-58
2022/03/16 00:13:04;;;;;;;51.45;37.20;;;4.30;99.90;;;;;;5014331;28;20123;-58
2022/03/16 00:15:30;;;;;;;48.13;36.75;;;4.30;99.90;;;;;;5039343;28;20044;-56
2022/03/16 00:17:56;;;;;;;51.60;37.38;;;4.20;99.90;;;;;;5037218;28;20389;-57
2022/03/16 00:20:22;;;;;;;49.50;35.58;;;4.20;99.90;;;;;;5037634;28;20042;-56
2022/03/16 00:22:48;;;;;;;43.15;33.33;;;4.10;99.90;;;;;;5052777;28;20455;-58
2022/03/16 00:25:14;;;;;;;53.47;38.20;;;4.10;99.90;;;;;;5033767;28;20045;-59
2022/03/16 00:27:41;;;;;;;50.85;37.05;;;4.00;99.90;;;;;;5048274;28;20049;-59
2022/03/16 00:30:07;;;;;;;49.60;38.53;;;4.10;99.90;;;;;;5055395;28;20041;-58
2022/03/16 00:32:34;;;;;;;53.03;40.67;;;4.00;99.90;;;;;;5040174;28;20037;-59
2022/03/16 00:35:03;;;;;;;55.97;38.90;;;4.10;99.90;;;;;;5016750;28;20052;-58
2022/03/16 00:37:29;;;;;;;57.53;40.80;;;4.10;99.90;;;;;;5051210;28;20088;-58
2022/03/16 00:39:55;;;;;;;67.05;45.42;;;4.10;99.90;;;;;;5029370;28;20052;-59
2022/03/16 00:42:22;;;;;;;63.83;41.80;;;4.10;99.90;;;;;;5053959;28;20044;-58
2022/03/16 00:44:48;;;;;;;63.50;43.63;;;4.10;99.90;;;;;;5038450;28;20493;-58
2022/03/16 00:47:14;;;;;;;55.45;39.95;;;4.10;99.90;;;;;;5037150;28;20053;-59
2022/03/16 00:49:40;;;;;;;58.55;39.65;;;4.10;99.90;;;;;;5038162;28;20072;-59
2022/03/16 00:52:07;;;;;;;64.90;43.53;;;4.10;99.90;;;;;;5021664;28;20551;-58
2022/03/16 00:54:33;;;;;;;63.78;43.30;;;4.10;99.90;;;;;;5054625;28;20148;-59
2022/03/16 00:57:01;;;;;;;61.95;42.13;;;4.20;99.90;;;;;;5035813;28;20044;-58
2022/03/16 00:59:28;;;;;;;63.60;42.17;;;4.10;99.90;;;;;;5031280;28;20539;-58
2022/03/16 01:01:54;;;;;;;64.68;43.63;;;4.10;99.90;;;;;;5026760;28;20052;-57
2022/03/16 01:04:20;;;;;;;65.20;44.70;;;4.10;99.90;;;;;;5041606;28;20534;-56
2022/03/16 01:06:46;;;;;;;74.93;49.80;;;4.20;99.90;;;;;;5050714;28;20045;-57
2022/03/16 01:09:13;;;;;;;90.50;54.40;;;4.10;99.90;;;;;;5040678;28;20040;-57
2022/03/16 01:11:40;;;;;;;90.90;55.10;;;4.20;99.90;;;;;;5043209;28;20045;-57
2022/03/16 01:14:06;;;;;;;111.22;59.40;;;4.30;99.90;;;;;;5058158;28;20056;-59
2022/03/16 01:16:38;;;;;;;111.32;60.45;;;4.30;99.90;;;;;;5041330;28;20101;-59
2022/03/16 01:19:05;;;;;;;114.25;55.63;;;4.30;99.90;;;;;;5040209;28;20159;-57
2022/03/16 01:21:31;;;;;;;174.35;48.60;;;4.20;99.90;;;;;;5053992;28;20041;-57
2022/03/16 01:23:58;;;;;;;67.28;40.80;;;4.00;99.90;;;;;;5040240;28;20129;-57
2022/03/16 01:26:24;;;;;;;54.15;38.70;;;3.90;99.90;;;;;;5042568;28;20048;-57
2022/03/16 01:28:51;;;;;;;67.57;40.25;;;3.80;99.90;;;;;;5055927;28;20053;-58
2022/03/16 01:31:21;;;;;;;103.90;44.95;;;3.70;99.90;;;;;;5049183;28;20524;-57
2022/03/16 01:33:47;;;;;;;87.90;39.53;;;3.70;99.90;;;;;;5048997;28;20049;-57
2022/03/16 01:36:15;;;;;;;55.60;38.92;;;3.70;99.90;;;;;;5049500;28;20048;-57
2022/03/16 01:38:41;;;;;;;47.45;35.15;;;3.70;99.90;;;;;;5042392;28;20045;-56
2022/03/16 01:41:07;;;;;;;47.10;33.72;;;3.60;99.90;;;;;;5050916;28;20057;-57
2022/03/16 01:43:34;;;;;;;43.25;35.25;;;3.60;99.90;;;;;;5049816;28;20048;-58
2022/03/16 01:46:00;;;;;;;80.45;40.38;;;3.50;99.90;;;;;;5028409;28;20048;-58
2022/03/16 01:48:26;;;;;;;55.40;39.38;;;3.50;99.90;;;;;;5039107;28;20420;-58
2022/03/16 01:50:54;;;;;;;73.07;46.15;;;3.50;99.90;;;;;;5045691;28;20049;-59
2022/03/16 01:53:24;;;;;;;68.57;44.35;;;3.60;99.90;;;;;;5042395;28;20402;-58
2022/03/16 01:55:51;;;;;;;85.95;49.33;;;3.60;99.90;;;;;;5049272;28;20045;-59
2022/03/16 01:58:19;;;;;;;87.38;54.42;;;3.60;99.90;;;;;;5043919;28;20049;-58
2022/03/16 02:00:45;;;;;;;85.35;50.70;;;3.70;99.90;;;;;;5043067;28;20053;-58
2022/03/16 02:03:11;;;;;;;72.07;47.83;;;3.70;99.90;;;;;;5022245;28;20041;-58
2022/03/16 02:05:38;;;;;;;74.97;50.03;;;3.60;99.90;;;;;;5036368;28;20052;-58
2022/03/16 02:08:07;;;;;;;77.78;49.92;;;3.60;99.90;;;;;;5055404;28;20374;-58
2022/03/16 02:10:34;;;;;;;74.88;48.33;;;3.70;99.90;;;;;;5061630;28;20497;-58
2022/03/16 02:13:01;;;;;;;84.38;52.45;;;3.60;99.90;;;;;;5040835;28;20258;-58
2022/03/16 02:15:28;;;;;;;82.03;51.05;;;3.60;99.90;;;;;;5055489;28;20051;-58
2022/03/16 02:17:57;;;;;;;87.65;52.85;;;3.60;99.90;;;;;;5012349;28;20057;-58
2022/03/16 02:20:24;;;;;;;80.75;51.40;;;3.70;99.90;;;;;;5042576;28;20515;-58
2022/03/16 02:22:54;;;;;;;82.57;52.25;;;3.70;99.90;;;;;;5054747;28;20724;-58
2022/03/16 02:25:20;;;;;;;77.35;51.97;;;3.60;99.90;;;;;;5056189;28;20049;-59
2022/03/16 02:27:46;;;;;;;70.78;47.63;;;3.70;99.90;;;;;;5039376;28;20075;-58
2022/03/16 02:30:12;;;;;;;69.32;46.55;;;3.60;99.90;;;;;;5041598;28;20045;-58
2022/03/16 02:32:39;;;;;;;78.70;49.67;;;3.60;99.90;;;;;;5032965;28;20052;-58
2022/03/16 02:35:05;;;;;;;90.60;55.08;;;3.60;99.90;;;;;;5056029;28;20144;-58
2022/03/16 02:37:31;;;;;;;83.47;54.47;;;3.70;99.90;;;;;;5038328;28;20045;-58
2022/03/16 02:39:57;;;;;;;76.43;50.88;;;3.70;99.90;;;;;;5039936;28;20268;-58
2022/03/16 02:42:23;;;;;;;79.55;48.63;;;3.60;99.90;;;;;;5041406;28;20049;-58
2022/03/16 02:44:50;;;;;;;71.07;48.08;;;3.60;99.90;;;;;;5030046;28;20565;-58
2022/03/16 02:47:16;;;;;;;73.20;46.25;;;3.50;99.90;;;;;;5032659;28;20053;-58
2022/03/16 02:49:42;;;;;;;72.70;46.38;;;3.50;99.90;;;;;;5040626;28;20056;-58
2022/03/16 02:52:09;;;;;;;70.13;47.55;;;3.40;99.90;;;;;;5041305;28;20589;-57
2022/03/16 02:54:35;;;;;;;69.82;45.38;;;3.40;99.90;;;;;;5046906;28;20060;-56
2022/03/16 02:57:01;;;;;;;68.07;43.20;;;3.30;99.90;;;;;;5040257;28;20056;-57
2022/03/16 02:59:28;;;;;;;58.42;41.08;;;3.20;99.90;;;;;;5040468;28;20431;-58
2022/03/16 03:01:54;;;;;;;69.93;42.70;;;3.20;99.90;;;;;;5040808;28;20508;-58
2022/03/16 03:04:20;;;;;;;50.55;39.20;;;3.10;99.90;;;;;;5038471;28;20539;-58
2022/03/16 03:06:46;;;;;;;64.40;44.10;;;3.10;99.90;;;;;;5056105;28;20048;-58
2022/03/16 03:09:12;;;;;;;111.68;40.53;;;3.00;99.90;;;;;;5053328;28;20052;-59
2022/03/16 03:11:40;;;;;;;63.08;37.85;;;3.00;99.90;;;;;;5039868;28;20045;-57
2022/03/16 03:14:06;;;;;;;47.47;36.10;;;2.90;99.90;;;;;;5034263;28;20084;-60
2022/03/16 03:16:32;;;;;;;50.38;37.25;;;2.90;99.90;;;;;;5036042;28;20044;-57
2022/03/16 03:18:58;;;;;;;80.60;48.67;;;2.90;99.90;;;;;;5029286;28;20541;-58
2022/03/16 03:21:25;;;;;;;80.80;49.10;;;2.90;99.90;;;;;;5038771;28;20046;-58
2022/03/16 03:23:51;;;;;;;80.85;48.00;;;3.00;99.90;;;;;;5037352;28;20076;-58
2022/03/16 03:26:17;;;;;;;96.05;52.72;;;3.00;99.90;;;;;;5018677;28;20053;-58
2022/03/16 03:28:43;;;;;;;204.88;62.30;;;3.10;99.90;;;;;;5037669;28;20060;-58
2022/03/16 03:31:09;;;;;;;104.55;51.20;;;3.00;99.90;;;;;;5052679;28;20443;-57
2022/03/16 03:33:35;;;;;;;79.90;45.97;;;3.00;99.90;;;;;;5025676;28;20048;-57
2022/03/16 03:36:01;;;;;;;95.03;46.80;;;3.00;99.90;;;;;;5038590;28;20118;-57
2022/03/16 03:38:27;;;;;;;125.00;42.83;;;3.00;99.90;;;;;;5038825;28;20059;-58
2022/03/16 03:40:53;;;;;;;72.80;38.22;;;2.90;99.90;;;;;;5034638;28;20456;-58
2022/03/16 03:43:19;;;;;;;58.67;35.65;;;2.90;99.90;;;;;;5038237;28;20049;-58
2022/03/16 03:45:45;;;;;;;46.70;34.38;;;2.80;99.90;;;;;;5041243;28;20138;-58
2022/03/16 03:48:11;;;;;;;80.10;36.75;;;2.80;99.90;;;;;;5039398;28;20098;-58
2022/03/16 03:50:37;;;;;;;91.88;38.75;;;2.80;99.90;;;;;;5025839;28;20057;-58
2022/03/16 03:53:03;;;;;;;54.47;36.67;;;2.70;99.90;;;;;;5032548;28;20111;-59
2022/03/16 03:55:29;;;;;;;52.67;34.58;;;2.70;99.90;;;;;;5055076;28;20116;-58
2022/03/16 03:57:57;;;;;;;80.57;37.78;;;2.70;99.90;;;;;;5038103;28;20098;-58
2022/03/16 04:00:24;;;;;;;62.75;36.40;;;2.70;99.90;;;;;;5031838;28;20075;-57
2022/03/16 04:02:51;;;;;;;54.58;37.67;;;2.70;99.90;;;;;;5038779;28;20437;-58
2022/03/16 04:05:18;;;;;;;51.13;37.78;;;2.70;99.90;;;;;;5036816;28;20531;-58
2022/03/16 04:07:45;;;;;;;53.90;37.95;;;2.70;99.90;;;;;;5029953;28;20051;-58
2022/03/16 04:10:12;;;;;;;54.38;39.20;;;2.70;99.90;;;;;;5042393;28;20099;-57
2022/03/16 04:12:38;;;;;;;54.17;39.08;;;2.70;99.90;;;;;;5043067;28;20045;-57
2022/03/16 04:15:05;;;;;;;47.70;36.95;;;2.70;99.90;;;;;;5039527;28;20496;-58
2022/03/16 04:17:32;;;;;;;52.08;37.00;;;2.70;99.90;;;;;;5030232;28;20623;-57
2022/03/16 04:19:58;;;;;;;41.83;32.15;;;2.70;99.90;;;;;;5038162;28;20052;-58
2022/03/16 04:22:28;;;;;;;44.60;34.83;;;2.70;99.90;;;;;;5049306;28;20083;-58
2022/03/16 04:24:55;;;;;;;45.58;34.85;;;2.60;99.90;;;;;;5031202;28;20709;-58
2022/03/16 04:27:21;;;;;;;42.20;33.38;;;2.60;99.90;;;;;;5030652;28;20519;-59
2022/03/16 04:29:47;;;;;;;44.70;34.72;;;2.60;99.90;;;;;;5039943;28;20044;-58
2022/03/16 04:32:13;;;;;;;46.63;36.85;;;2.60;99.90;;;;;;5028901;28;20049;-57
2022/03/16 04:34:39;;;;;;;53.17;38.92;;;2.60;99.90;;;;;;5032175;28;20111;-57
2022/03/16 04:37:05;;;;;;;49.08;36.67;;;2.60;99.90;;;;;;5048006;28;20049;-57
2022/03/16 04:39:32;;;;;;;50.00;37.60;;;2.60;99.90;;;;;;5042985;28;20513;-58
2022/03/16 04:41:58;;;;;;;49.70;37.45;;;2.50;99.90;;;;;;5041990;28;20048;-58
2022/03/16 04:44:24;;;;;;;42.65;32.97;;;2.50;99.90;;;;;;5040801;28;20045;-60
2022/03/16 04:46:50;;;;;;;44.72;35.08;;;2.40;99.90;;;;;;5057742;28;20448;-58
2022/03/16 04:49:16;;;;;;;49.45;35.70;;;2.50;99.90;;;;;;5043611;28;20431;-58
2022/03/16 04:51:43;;;;;;;43.75;34.95;;;2.40;99.90;;;;;;5057249;28;20562;-58
2022/03/16 04:54:09;;;;;;;60.63;42.88;;;2.40;99.90;;;;;;5044970;28;20040;-57
2022/03/16 04:56:36;;;;;;;70.25;47.28;;;2.50;99.90;;;;;;5043270;28;20052;-58
2022/03/16 04:59:03;;;;;;;69.50;46.25;;;2.60;99.90;;;;;;5045797;28;20067;-58
2022/03/16 05:01:30;;;;;;;89.72;52.80;;;2.60;99.90;;;;;;5044674;28;20107;-58
2022/03/16 05:03:56;;;;;;;63.88;45.40;;;2.60;99.90;;;;;;5046003;28;20049;-58
2022/03/16 05:06:22;;;;;;;68.18;49.35;;;2.60;99.90;;;;;;5027643;28;20053;-58
2022/03/16 05:08:50;;;;;;;74.03;48.40;;;2.60;99.90;;;;;;5045957;28;20056;-58
2022/03/16 05:11:17;;;;;;;66.88;48.47;;;2.70;99.90;;;;;;5048276;28;20084;-59
2022/03/16 05:13:43;;;;;;;69.50;45.67;;;2.60;99.90;;;;;;5035782;28;20049;-58
2022/03/16 05:16:09;;;;;;;61.35;42.53;;;2.60;99.90;;;;;;5044645;28;20435;-58
2022/03/16 05:18:35;;;;;;;71.60;48.22;;;2.60;99.90;;;;;;5045323;28;20161;-58
2022/03/16 05:21:07;;;;;;;66.55;41.42;;;2.60;99.90;;;;;;5044540;28;20111;-58
2022/03/16 05:23:37;;;;;;;54.85;40.25;;;2.50;99.90;;;;;;5044369;28;20052;-57
2022/03/16 05:26:04;;;;;;;54.50;39.80;;;2.50;99.90;;;;;;5043252;28;20176;-57
2022/03/16 05:28:30;;;;;;;49.97;39.25;;;2.40;99.90;;;;;;5043945;28;20163;-59
2022/03/16 05:30:56;;;;;;;56.97;42.50;;;2.40;99.90;;;;;;5032981;28;20049;-59
2022/03/16 05:33:24;;;;;;;54.55;38.38;;;2.40;99.90;;;;;;5046824;28;20093;-59
2022/03/16 05:35:50;;;;;;;61.22;43.67;;;2.30;99.90;;;;;;5056530;28;20122;-59
2022/03/16 05:38:17;;;;;;;77.63;50.15;;;2.30;99.90;;;;;;5044821;28;20103;-58
2022/03/16 05:40:44;;;;;;;89.18;56.70;;;2.50;99.90;;;;;;5044441;28;20044;-59
2022/03/16 05:43:11;;;;;;;97.57;59.80;;;2.50;99.90;;;;;;5038078;28;20570;-58
2022/03/16 05:45:37;;;;;;;75.22;51.78;;;2.60;99.90;;;;;;5034410;28;20044;-58
2022/03/16 05:48:04;;;;;;;74.57;51.83;;;2.60;99.90;;;;;;5049895;28;20051;-59
2022/03/16 05:50:31;;;;;;;75.70;51.60;;;2.70;99.90;;;;;;5061362;28;20124;-59
2022/03/16 05:53:02;;;;;;;65.80;49.55;;;2.70;99.90;;;;;;5053916;28;20059;-56
2022/03/16 05:55:28;;;;;;;61.97;45.35;;;2.70;99.90;;;;;;5050876;28;20049;-59
2022/03/16 05:57:57;;;;;;;60.08;43.78;;;2.70;99.90;;;;;;5040494;28;20518;-59
2022/03/16 06:00:23;;;;;;;63.92;45.78;;;2.70;99.90;;;;;;5040377;28;20041;-59
2022/03/16 06:02:50;;;;;;;60.67;47.42;;;2.70;99.90;;;;;;5040121;28;20155;-59
2022/03/16 06:05:17;;;;;;;64.13;45.15;;;2.70;99.90;;;;;;5041052;28;20111;-59
2022/03/16 06:07:43;;;;;;;74.47;50.40;;;2.80;99.90;;;;;;5038999;28;20139;-59
2022/03/16 06:10:15;;;;;;;66.85;49.30;;;2.80;99.90;;;;;;5042245;28;20049;-59
2022/03/16 06:12:57;;;;;;;78.95;55.70;;;2.90;99.90;;;;;;5035235;28;20049;-59
2022/03/16 06:15:27;;;;;;;80.78;54.63;;;3.10;99.90;;;;;;5037697;28;20045;-59
2022/03/16 06:17:55;;;;;;;74.93;54.90;;;3.20;99.90;;;;;;5000887;28;20080;-58
2022/03/16 06:20:22;;;;;;;89.20;58.25;;;3.30;99.90;;;;;;5038254;28;20041;-59
2022/03/16 06:22:48;;;;;;;84.13;56.00;;;3.40;99.90;;;;;;5042469;28;20568;-59
2022/03/16 06:25:14;;;;;;;92.75;58.90;;;3.50;99.90;;;;;;5042977;28;20052;-59
2022/03/16 06:27:40;;;;;;;85.28;57.88;;;3.60;99.90;;;;;;5023881;28;20451;-59
2022/03/16 06:30:07;;;;;;;75.63;53.97;;;3.70;99.90;;;;;;5041499;28;20045;-59
2022/03/16 06:32:33;;;;;;;71.10;49.03;;;3.70;99.90;;;;;;5041319;28;20041;-59
2022/03/16 06:35:01;;;;;;;64.13;48.05;;;3.70;99.90;;;;;;5042085;28;20060;-59
2022/03/16 06:37:28;;;;;;;52.47;41.28;;;3.70;99.90;;;;;;5031022;28;20401;-59
2022/03/16 06:39:54;;;;;;;54.42;42.20;;;3.80;99.90;;;;;;5036447;28;20466;-61
2022/03/16 06:42:20;;;;;;;51.10;42.65;;;3.80;99.90;;;;;;5041171;28;20052;-59
2022/03/16 06:44:46;;;;;;;61.95;47.42;;;3.90;99.90;;;;;;5039692;28;20729;-59
2022/03/16 06:47:12;;;;;;;59.13;45.97;;;4.00;99.90;;;;;;5033903;28;20507;-59
2022/03/16 06:49:38;;;;;;;58.15;45.03;;;4.10;99.90;;;;;;5042567;28;20041;-57
2022/03/16 06:52:05;;;;;;;60.35;46.22;;;4.20;99.90;;;;;;5040614;28;20051;-58
2022/03/16 06:54:31;;;;;;;64.93;44.65;;;4.30;99.90;;;;;;5042654;28;20583;-57
2022/03/16 06:56:57;;;;;;;58.15;45.67;;;4.40;99.90;;;;;;5039109;28;20044;-57
2022/03/16 06:59:23;;;;;;;60.75;43.35;;;4.40;99.90;;;;;;5031289;28;20045;-57
2022/03/16 07:01:49;;;;;;;66.53;48.65;;;4.50;99.90;;;;;;5040826;28;20049;-57
2022/03/16 07:04:15;;;;;;;56.35;46.80;;;4.60;99.90;;;;;;5042735;28;20128;-57
2022/03/16 07:06:41;;;;;;;59.47;45.05;;;4.70;99.90;;;;;;5055929;28;20156;-57
2022/03/16 07:09:07;;;;;;;62.55;47.90;;;4.80;99.90;;;;;;5043436;28;20668;-57
2022/03/16 07:11:33;;;;;;;57.03;46.58;;;4.90;99.90;;;;;;5042118;28;20053;-57
2022/03/16 07:16:43;;;;;;;54.20;46.60;;;5.10;99.90;;;;;;5042358;28;20226;-57
2022/03/16 07:19:10;;;;;;;58.35;43.40;;;5.10;99.90;;;;;;5057422;28;20041;-58
2022/03/16 07:21:36;;;;;;;49.67;40.05;;;5.20;99.90;;;;;;5041782;28;20463;-57
2022/03/16 07:24:02;;;;;;;48.00;39.50;;;5.30;99.90;;;;;;5042685;28;20136;-57
2022/03/16 07:26:28;;;;;;;49.88;41.05;;;5.40;99.90;;;;;;5024161;28;20455;-56
2022/03/16 07:28:56;;;;;;;42.53;36.65;;;5.50;99.90;;;;;;5042052;28;20052;-57
2022/03/16 07:31:22;;;;;;;46.17;37.67;;;5.70;99.90;;;;;;5040850;28;20103;-57
2022/03/16 07:33:49;;;;;;;43.20;36.88;;;5.80;99.90;;;;;;5041033;28;20053;-57
2022/03/16 07:36:16;;;;;;;40.65;35.75;;;6.10;99.90;;;;;;5037823;28;20111;-57
2022/03/16 07:38:42;;;;;;;43.58;35.15;;;6.50;99.90;;;;;;5039000;28;20057;-58
2022/03/16 07:41:08;;;;;;;35.35;30.98;;;6.80;99.90;;;;;;5041763;28;20146;-57
2022/03/16 07:43:34;;;;;;;36.10;31.70;;;7.00;99.90;;;;;;5041582;28;20049;-56
2022/03/16 07:46:02;;;;;;;37.67;33.63;;;7.10;99.90;;;;;;5041062;28;20078;-57
2022/03/16 07:48:28;;;;;;;42.22;34.83;;;7.10;99.90;;;;;;5042297;28;20400;-56
2022/03/16 07:50:54;;;;;;;35.38;31.65;;;7.00;99.90;;;;;;5023993;28;20419;-58
2022/03/16 07:53:20;;;;;;;42.28;32.42;;;7.00;99.90;;;;;;5041765;28;20052;-58
2022/03/16 07:55:48;;;;;;;37.20;31.65;;;7.00;99.90;;;;;;5043108;28;20057;-59
2022/03/16 07:58:14;;;;;;;39.33;33.00;;;7.10;99.90;;;;;;5042254;28;20041;-58
2022/03/16 08:00:40;;;;;;;36.00;31.05;;;7.20;99.90;;;;;;5040826;28;20045;-58
2022/03/16 08:03:06;;;;;;;36.28;32.00;;;7.40;99.90;;;;;;5042063;28;20036;-58
2022/03/16 08:05:33;;;;;;;36.92;31.73;;;7.50;99.90;;;;;;5042613;28;20127;-59
2022/03/16 08:07:59;;;;;;;34.70;30.50;;;7.70;99.90;;;;;;5057195;28;20052;-59
2022/03/16 08:10:25;;;;;;;36.33;32.42;;;8.00;99.90;;;;;;5022366;28;20081;-59
2022/03/16 08:12:52;;;;;;;35.92;30.40;;;8.30;99.90;;;;;;5037939;28;20045;-58
2022/03/16 08:15:19;;;;;;;36.22;31.33;;;8.70;99.90;;;;;;5023834;28;20538;-58
2022/03/16 08:17:46;;;;;;;29.98;26.70;;;9.00;99.90;;;;;;5040231;28;20075;-58
2022/03/16 08:20:14;;;;;;;34.67;31.13;;;9.50;99.90;;;;;;5041983;28;20041;-59
2022/03/16 08:22:45;;;;;;;29.83;26.75;;;9.80;99.90;;;;;;5042251;28;20083;-59
2022/03/16 08:25:12;;;;;;;29.38;25.92;;;10.00;99.90;;;;;;4974316;28;20041;-58
2022/03/16 08:27:40;;;;;;;26.27;22.77;;;10.40;99.90;;;;;;5037993;28;20060;-58
2022/03/16 08:30:08;;;;;;;27.00;24.10;;;10.50;99.90;;;;;;5037912;28;20045;-59
2022/03/16 08:32:34;;;;;;;28.55;25.40;;;10.70;99.90;;;;;;5034363;28;20045;-59
2022/03/16 08:35:01;;;;;;;26.83;24.02;;;11.00;99.90;;;;;;5035614;28;20532;-59
2022/03/16 08:37:27;;;;;;;25.50;22.83;;;11.60;99.90;;;;;;5038250;28;20052;-59
2022/03/16 08:39:53;;;;;;;26.77;23.90;;;11.90;99.90;;;;;;5022506;28;20392;-59
2022/03/16 08:42:19;;;;;;;30.55;24.02;;;12.40;99.90;;;;;;5040953;28;20303;-60
2022/03/16 08:44:45;;;;;;;28.15;23.48;;;12.50;99.90;;;;;;5055763;28;20084;-59
2022/03/16 08:47:16;;;;;;;26.60;23.90;;;12.60;99.90;;;;;;5004325;28;20079;-59
2022/03/16 08:49:44;;;;;;;25.75;22.42;;;13.00;99.90;;;;;;5040165;28;20061;-59
2022/03/16 08:52:10;;;;;;;25.38;22.67;;;13.10;99.90;;;;;;5039643;28;20052;-59
2022/03/16 08:54:37;;;;;;;24.75;22.15;;;13.60;99.90;;;;;;5042103;28;20048;-61
2022/03/16 08:57:04;;;;;;;25.60;22.70;;;13.30;99.90;;;;;;5041573;28;20552;-59
2022/03/16 08:59:30;;;;;;;23.70;21.20;;;13.40;99.90;;;;;;5038262;28;20045;-59
2022/03/16 09:01:56;;;;;;;24.42;21.67;;;13.50;99.90;;;;;;5054307;28;20396;-59
2022/03/16 09:04:22;;;;;;;25.55;22.75;;;13.40;99.90;;;;;;5036661;28;20048;-59
2022/03/16 09:06:49;;;;;;;24.50;21.38;;;13.70;99.90;;;;;;5039312;28;20055;-59
2022/03/16 09:09:15;;;;;;;26.40;23.42;;;14.10;99.90;;;;;;5040617;28;20588;-59
2022/03/16 09:11:41;;;;;;;25.40;22.60;;;14.40;99.90;;;;;;5036632;28;20053;-59
2022/03/16 09:14:07;;;;;;;24.55;22.05;;;14.50;99.90;;;;;;5041489;28;20373;-60
2022/03/16 09:16:34;;;;;;;23.70;21.20;;;14.80;99.90;;;;;;5038126;28;20037;-59
2022/03/16 09:19:00;;;;;;;25.20;21.17;;;15.00;99.90;;;;;;5034085;28;20571;-59
2022/03/16 09:21:26;;;;;;;22.42;19.90;;;15.00;99.90;;;;;;5044473;28;20064;-59
2022/03/16 09:23:53;;;;;;;21.17;18.00;;;15.20;99.90;;;;;;5041475;28;20045;-59
2022/03/16 09:26:22;;;;;;;26.17;18.75;;;15.00;99.90;;;;;;5042925;28;20633;-59
2022/03/16 09:28:50;;;;;;;23.50;17.75;;;14.90;99.90;;;;;;5043837;28;20045;-59
2022/03/16 09:31:16;;;;;;;21.92;17.42;;;14.70;99.90;;;;;;5044268;28;20491;-60
2022/03/16 09:33:42;;;;;;;22.13;17.63;;;14.80;99.90;;;;;;5042296;28;20508;-59
2022/03/16 09:36:09;;;;;;;19.55;17.30;;;14.90;99.90;;;;;;5042835;28;20568;-59
2022/03/16 09:38:36;;;;;;;20.00;17.23;;;14.90;99.90;;;;;;5043436;28;20095;-59
2022/03/16 09:41:03;;;;;;;20.17;15.80;;;15.50;99.90;;;;;;5043700;28;20727;-59
2022/03/16 09:43:33;;;;;;;17.95;15.50;;;15.90;99.90;;;;;;5043880;28;20037;-60
2022/03/16 09:46:11;;;;;;;18.92;15.27;;;15.80;99.90;;;;;;5022895;28;20057;-59
2022/03/16 09:48:41;;;;;;;15.35;13.73;;;15.80;99.90;;;;;;5040530;28;20084;-59
2022/03/16 09:51:09;;;;;;;17.58;15.15;;;15.90;95.80;;;;;;5042684;28;20084;-59
2022/03/16 09:53:36;;;;;;;17.25;14.40;;;15.90;78.40;;;;;;5043119;28;20048;-58
2022/03/16 09:56:03;;;;;;;17.58;15.05;;;16.00;72.10;;;;;;5042726;28;20065;-59
2022/03/16 09:58:29;;;;;;;18.80;14.77;;;16.50;72.90;;;;;;5057863;28;20045;-59
2022/03/16 10:00:56;;;;;;;17.58;14.93;;;16.70;64.90;;;;;;5044145;28;20358;-58
2022/03/16 10:03:28;;;;;;;18.50;15.65;;;16.80;63.50;;;;;;5043027;28;20040;-59
2022/03/16 10:05:56;;;;;;;17.60;14.50;;;16.90;64.90;;;;;;5042876;28;20428;-59
2022/03/16 10:08:34;;;;;;;16.48;14.55;;;17.00;61.00;;;;;;5058206;28;20045;-59
2022/03/16 10:14:11;;;;;;;19.80;15.35;;;17.60;57.60;;;;;;5041829;28;20720;-59
2022/03/16 10:19:48;;;;;;;17.25;14.77;;;17.40;59.00;;;;;;5040077;28;20056;-58
2022/03/16 10:22:30;;;;;;;19.05;15.80;;;16.80;57.70;;;;;;5038571;28;20369;-59
2022/03/16 10:25:04;;;;;;;17.33;15.13;;;16.90;57.70;;;;;;5043650;28;20191;-59
2022/03/16 10:27:31;;;;;;;16.77;14.43;;;17.00;60.30;;;;;;5040662;28;20404;-56
2022/03/16 10:29:57;;;;;;;17.27;15.43;;;17.00;58.60;;;;;;5043790;28;20106;-57
2022/03/16 10:32:23;;;;;;;16.17;14.43;;;16.40;58.30;;;;;;5041761;28;20056;-57
2022/03/16 10:34:54;;;;;;;17.55;15.05;;;16.00;59.10;;;;;;5023082;28;20045;-57
2022/03/16 10:37:22;;;;;;;;;;;15.90;59.80;;;;;;5041984;28;20053;-56
2022/03/16 10:39:51;;;;;;;18.65;15.32;;;15.50;61.90;;;;;;5041689;28;19967;-56
2022/03/16 10:48:23;;;;;;;18.50;14.13;;;16.10;62.10;;;;;;5054246;28;20045;-56
2022/03/16 10:50:55;;;;;;;21.38;16.67;;;16.20;59.00;;;;;;5042497;28;20119;-57
2022/03/16 10:53:28;;;;;;;18.10;14.88;;;16.30;59.50;;;;;;5040525;28;20041;-58
2022/03/16 10:55:56;;;;;;;15.88;14.15;;;16.40;60.60;;;;;;5041611;28;20055;-57
2022/03/16 10:58:24;;;;;;;18.25;14.80;;;16.60;58.00;;;;;;5040687;28;20045;-57
2022/03/16 11:00:52;;;;;;;18.42;15.07;;;17.20;58.10;;;;;;5058931;28;20084;-57
2022/03/16 11:03:22;;;;;;;19.08;15.55;;;17.30;57.30;;;;;;5041123;28;20520;-58
2022/03/16 11:05:49;;;;;;;18.88;15.52;;;17.10;57.10;;;;;;5024526;28;20048;-59
2022/03/16 11:08:16;;;;;;;16.02;14.32;;;17.50;56.70;;;;;;5041715;28;20124;-58
2022/03/16 11:10:43;;;;;;;17.80;13.93;;;17.50;56.00;;;;;;5041942;28;20142;-58
2022/03/16 11:13:29;;;;;;;17.58;13.30;;;17.60;55.30;;;;;;5041910;28;20797;-58
2022/03/16 11:15:57;;;;;;;15.45;12.75;;;18.00;55.40;;;;;;5038082;28;20045;-58
2022/03/16 11:18:24;;;;;;;16.10;12.07;;;18.30;54.00;;;;;;5037657;28;20056;-58
2022/03/16 11:20:53;;;;;;;14.95;11.80;;;18.20;51.50;;;;;;5024755;28;20458;-58
2022/03/16 11:24:17;;;;;;;16.27;12.32;;;18.80;51.70;;;;;;5041211;28;20116;-58
2022/03/16 11:26:34;;;;;;;13.65;11.82;;;18.80;50.90;;;;;;5026333;28;20041;-58
2022/03/16 11:29:25;;;;;;;14.68;11.63;;;19.10;50.40;;;;;;5040388;28;20044;-58
2022/03/16 11:32:17;;;;;;;13.80;11.23;;;19.10;47.60;;;;;;5040615;28;20527;-59
2022/03/16 11:34:56;;;;;;;16.63;12.75;;;19.30;49.60;;;;;;5042832;28;20458;-58
2022/03/16 11:37:34;;;;;;;16.85;12.50;;;19.20;48.10;;;;;;5038758;28;20049;-58
2022/03/16 11:40:20;;;;;;;14.20;12.25;;;19.20;48.50;;;;;;5040768;28;20041;-58
2022/03/16 11:43:05;;;;;;;14.82;12.50;;;19.10;48.00;;;;;;5051093;28;20052;-58
2022/03/16 11:45:43;;;;;;;14.25;12.77;;;19.40;48.00;;;;;;5040682;28;20487;-58
2022/03/16 11:48:34;;;;;;;16.77;12.65;;;20.10;48.40;;;;;;5059444;28;20056;-59
2022/03/16 11:51:09;;;;;;;17.80;12.55;;;20.10;46.30;;;;;;5035814;28;20052;-59
2022/03/16 11:53:48;;;;;;;16.20;13.07;;;19.70;45.40;;;;;;5031131;28;20136;-59
2022/03/16 11:56:23;;;;;;;14.32;12.68;;;19.60;46.90;;;;;;5038749;28;20092;-58
2022/03/16 11:58:52;;;;;;;18.45;13.85;;;19.80;48.10;;;;;;5037925;28;20049;-58
2022/03/16 12:01:37;;;;;;;15.75;13.55;;;20.10;47.30;;;;;;5022516;28;20040;-59
2022/03/16 12:04:12;;;;;;;15.98;13.52;;;20.30;45.90;;;;;;5034554;28;20456;-58
2022/03/16 12:07:12;;;;;;;17.30;13.45;;;20.30;47.40;;;;;;5041342;28;20440;-58
2022/03/16 12:10:01;;;;;;;17.95;15.52;;;20.10;45.90;;;;;;5037138;28;20613;-59
2022/03/16 12:12:56;;;;;;;18.52;13.50;;;19.80;45.90;;;;;;5035167;28;20041;-61
2022/03/16 12:15:36;;;;;;;15.15;13.35;;;20.10;45.70;;;;;;5039489;28;20462;-58
2022/03/16 12:18:07;;;;;;;16.67;13.20;;;20.40;47.20;;;;;;5031113;28;20526;-58
2022/03/16 12:20:44;;;;;;;19.70;14.15;;;20.50;46.40;;;;;;5039832;28;20128;-58
2022/03/16 12:23:16;;;;;;;17.23;13.05;;;20.30;45.00;;;;;;5047746;28;20122;-57
2022/03/16 12:25:43;;;;;;;;;;;20.60;45.40;;;;;;5040306;28;20053;-58
2022/03/16 12:31:10;;;;;;;17.83;14.05;;;20.20;45.40;;;;;;5044594;28;20052;-58
2022/03/16 12:33:39;;;;;;;15.60;14.00;;;20.00;45.30;;;;;;5039510;28;20127;-58
2022/03/16 12:36:11;;;;;;;16.90;14.48;;;20.10;45.50;;;;;;5038094;28;20122;-58
2022/03/16 12:38:39;;;;;;;;;;;20.20;46.40;;;;;;5034744;28;20056;-57
2022/03/16 12:43:56;;;;;;;16.25;14.35;;;21.30;45.60;;;;;;5037289;28;20432;-57
2022/03/16 12:46:33;;;;;;;16.88;12.45;;;21.10;44.90;;;;;;5032888;28;20056;-57
2022/03/16 12:49:05;;;;;;;13.90;12.13;;;21.10;44.60;;;;;;5037517;28;20052;-57
2022/03/16 12:51:43;;;;;;;15.20;12.35;;;20.90;42.60;;;;;;5038603;28;20049;-61
2022/03/16 12:54:10;;;;;;;14.57;13.07;;;20.80;42.80;;;;;;5036891;28;20102;-61
2022/03/16 12:56:52;;;;;;;14.82;12.73;;;20.80;42.80;;;;;;5045284;28;20057;-61
2022/03/16 12:59:56;;;;;;;14.88;13.23;;;21.00;42.90;;;;;;5041316;28;20045;-61